Flight Track Log - Related Links

Times and Time Zones

All times are in EST time to prevent confusion due to time zone crossing. See the N319EE flight status page for this flight to view local times or setup timezone preferences in your user account.


Time Position Orientation Groundspeed Altitude Reporting Facility
EST Latitude Longitude Course Direction KTS MPH feet Rate Location/Type
Thu 04:46:25 PM 43.1153 -77.7014 260° West 139 160 2,600  Level Cleveland Center
Thu 04:46:37 PM 43.1083 -77.7053 202° Southwest 171 197 11,000 2,270 Climbing Cleveland Center
Thu 04:47:39 PM 43.0608 -77.6769 156° South 185 213 5,400 -1,742 Descending Cleveland Center
Thu 04:48:41 PM 43.0086 -77.6419 154° Southeast 201 231 7,400 1,500 Climbing Cleveland Center
Thu 04:49:43 PM 42.9664 -77.5625 126° Southeast 250 288 8,500 919 Climbing Cleveland Center
Thu 04:50:45 PM 42.9253 -77.4756 123° Southeast 266 306 9,300 871 Climbing Cleveland Center
Thu 04:51:47 PM 42.8856 -77.3864 121° Southeast 272 313 10,300 823 Climbing Cleveland Center
Thu 04:52:49 PM 42.8442 -77.3011 123° Southeast 269 310 11,000 339 Climbing Cleveland Center
Thu 04:53:51 PM 42.8033 -77.2142 123° Southeast 270 311 11,000  Level Cleveland Center
Thu 04:54:53 PM 42.7533 -77.1086 123° Southeast 275 316 11,000  Level Cleveland Center
Thu 04:55:55 PM 42.7108 -77.0206 123° Southeast 277 319 11,000 48 Level Cleveland Center
Thu 04:56:57 PM 42.6700 -76.9331 122° Southeast 276 318 11,100  Climbing Cleveland Center
Thu 04:57:59 PM 42.6272 -76.8447 123° Southeast 279 321 11,000 -63 Descending Cleveland Center
Thu 04:58:33 PM 42.6017 -76.7894 122° Southeast 274 315 11,000 -128 Level New York Center
Thu 04:59:33 PM 42.5603 -76.7014 123° Southeast 274 315 10,800 -600 Descending New York Center
Thu 05:00:33 PM 42.5131 -76.6042 123° Southeast 281 323 9,800 -900 Descending New York Center
Thu 05:01:33 PM 42.4694 -76.5133 123° Southeast 294 338 9,000 -800 Descending New York Center
Thu 05:02:33 PM 42.4300 -76.4256 121° Southeast 294 338 8,200 -1,450 Descending New York Center
Thu 05:03:33 PM 42.3922 -76.3436 122° Southeast 277 319 6,100 -2,041 Descending New York Center
Thu 05:04:10 PM 42.3711 -76.2958 121° Southeast 254 292 4,900 -1,455 Descending Cleveland Center
Thu 05:05:12 PM 42.3364 -76.2164 121° Southeast 252 290 3,700 -755 Descending Cleveland Center
Thu 05:06:33 PM 42.2961 -76.1253 121° Southeast 234 269 3,100 -255 Descending New York Center
Thu 05:07:33 PM 42.2661 -76.0528 119° Southeast 227 261 3,100 -250 Level New York Center
Thu 05:08:33 PM 42.2294 -75.9825 125° Southeast 212 244 2,600 -500 Descending New York Center

Login

Don't have an account? Register now (free) for customized features, flight alerts, and more!